Terminal Aerodrome Forecast
Issued by NWS

Home | Current Version | Previous Version | Text Only | Print | Product List | Glossary On
Versions: 1 2 3 4 5 6 7 8 9 10 11 12 13 14 15 16
000
FTUS43 KMPX 220500
TAFRNH
TAF
KRNH 220536Z 2206/2306 13005KT P6SM SKC
     FM221400 15012G20KT P6SM SCT050 BKN150
     FM221900 16014G21KT P6SM BKN050 BKN120
     FM230200 16010KT P6SM OVC045 PROB30 2302/2305 5SM -SHRA=

USA.gov is the U.S. government's official web portal to all federal, state and local government web resources and services.